<?xml version="1.0" encoding="UTF-8" standalone="no" ?>
<gpx xmlns="http://www.topografix.com/GPX/1/1" xmlns:xsi="http://www.w3.org/2001/XMLSchema-instance" xsi:schemaLocation="http://www.topografix.com/GPX/1/1 http://www.topografix.com/GPX/1/1/gpx.xsd" version="1.1" creator="VisuGPX - https://www.visugpx.com">
  <metadata>
    <name>Petite boucle à Banne</name>
  </metadata>
  <wpt lat="44.36521" lon="4.15609">
    <ele>277</ele>
    <name><![CDATA[Place de l'Église]]></name>
  </wpt>
  <wpt lat="44.36671" lon="4.16021">
    <ele>219</ele>
    <name><![CDATA[Route de la la station d épuration]]></name>
  </wpt>
  <wpt lat="44.36843" lon="4.15564">
    <ele>271</ele>
    <name><![CDATA[Place aux tilleuls ]]></name>
  </wpt>
  <wpt lat="44.36522" lon="4.15604">
    <ele>277</ele>
    <name><![CDATA[Arrivée place de l église]]></name>
  </wpt>
  <trk>
    <name><![CDATA[Petite boucle à Banne]]></name>
    <trkseg>
      <trkpt lat="44.36521" lon="4.15609">
        <ele>277</ele>
        <time>2021-07-28T11:59:01+02:00</time>
      </trkpt>
      <trkpt lat="44.36539" lon="4.15615">
        <ele>275</ele>
      </trkpt>
      <trkpt lat="44.36547" lon="4.15658">
        <ele>272</ele>
      </trkpt>
      <trkpt lat="44.36538" lon="4.15697">
        <ele>269</ele>
      </trkpt>
      <trkpt lat="44.36523" lon="4.15734">
        <ele>267</ele>
      </trkpt>
      <trkpt lat="44.36495" lon="4.15782">
        <ele>265</ele>
      </trkpt>
      <trkpt lat="44.3651" lon="4.15804">
        <ele>262</ele>
      </trkpt>
      <trkpt lat="44.36519" lon="4.15836">
        <ele>257</ele>
      </trkpt>
      <trkpt lat="44.36561" lon="4.15863">
        <ele>249</ele>
      </trkpt>
      <trkpt lat="44.36596" lon="4.15892">
        <ele>241</ele>
        <time>2021-07-28T11:59:49+02:00</time>
      </trkpt>
      <trkpt lat="44.36608" lon="4.15919">
        <ele>237</ele>
        <time>2021-07-28T12:00:23+02:00</time>
      </trkpt>
      <trkpt lat="44.36622" lon="4.15945">
        <ele>233</ele>
        <time>2021-07-28T12:01:20+02:00</time>
      </trkpt>
      <trkpt lat="44.36634" lon="4.15974">
        <ele>228</ele>
        <time>2021-07-28T12:01:50+02:00</time>
      </trkpt>
      <trkpt lat="44.36649" lon="4.16001">
        <ele>224</ele>
        <time>2021-07-28T12:02:25+02:00</time>
      </trkpt>
      <trkpt lat="44.36661" lon="4.16012">
        <ele>221</ele>
      </trkpt>
      <trkpt lat="44.36671" lon="4.16021">
        <ele>219</ele>
        <time>2021-07-28T12:02:56+02:00</time>
      </trkpt>
      <trkpt lat="44.36682" lon="4.15981">
        <ele>222</ele>
        <time>2021-07-28T12:04:12+02:00</time>
      </trkpt>
      <trkpt lat="44.36683" lon="4.15949">
        <ele>225</ele>
        <time>2021-07-28T12:04:35+02:00</time>
      </trkpt>
      <trkpt lat="44.36689" lon="4.15917">
        <ele>229</ele>
        <time>2021-07-28T12:05:02+02:00</time>
      </trkpt>
      <trkpt lat="44.36693" lon="4.15885">
        <ele>233</ele>
        <time>2021-07-28T12:05:36+02:00</time>
      </trkpt>
      <trkpt lat="44.36703" lon="4.15855">
        <ele>237</ele>
        <time>2021-07-28T12:06:06+02:00</time>
      </trkpt>
      <trkpt lat="44.36717" lon="4.15832">
        <ele>241</ele>
        <time>2021-07-28T12:06:55+02:00</time>
      </trkpt>
      <trkpt lat="44.36734" lon="4.15807">
        <ele>244</ele>
        <time>2021-07-28T12:08:14+02:00</time>
      </trkpt>
      <trkpt lat="44.36746" lon="4.1578">
        <ele>245</ele>
        <time>2021-07-28T12:09:16+02:00</time>
      </trkpt>
      <trkpt lat="44.3676" lon="4.15755">
        <ele>249</ele>
        <time>2021-07-28T12:10:03+02:00</time>
      </trkpt>
      <trkpt lat="44.36776" lon="4.15732">
        <ele>254</ele>
        <time>2021-07-28T12:10:47+02:00</time>
      </trkpt>
      <trkpt lat="44.36794" lon="4.15713">
        <ele>259</ele>
        <time>2021-07-28T12:11:31+02:00</time>
      </trkpt>
      <trkpt lat="44.36804" lon="4.15693">
        <ele>263</ele>
        <time>2021-07-28T12:17:14+02:00</time>
      </trkpt>
      <trkpt lat="44.36809" lon="4.15666">
        <ele>264</ele>
        <time>2021-07-28T12:20:25+02:00</time>
      </trkpt>
      <trkpt lat="44.36817" lon="4.15636">
        <ele>267</ele>
        <time>2021-07-28T12:21:00+02:00</time>
      </trkpt>
      <trkpt lat="44.36829" lon="4.15611">
        <ele>270</ele>
        <time>2021-07-28T12:21:32+02:00</time>
      </trkpt>
      <trkpt lat="44.36841" lon="4.15582">
        <ele>272</ele>
        <time>2021-07-28T12:22:02+02:00</time>
      </trkpt>
      <trkpt lat="44.36843" lon="4.15564">
        <ele>271</ele>
      </trkpt>
      <trkpt lat="44.36856" lon="4.15561">
        <ele>273</ele>
        <time>2021-07-28T12:22:38+02:00</time>
      </trkpt>
      <trkpt lat="44.36874" lon="4.15542">
        <ele>272</ele>
        <time>2021-07-28T12:23:48+02:00</time>
      </trkpt>
      <trkpt lat="44.36869" lon="4.15581">
        <ele>276</ele>
      </trkpt>
      <trkpt lat="44.36888" lon="4.15586">
        <ele>280</ele>
      </trkpt>
      <trkpt lat="44.36909" lon="4.15575">
        <ele>281</ele>
      </trkpt>
      <trkpt lat="44.36915" lon="4.15593">
        <ele>284</ele>
      </trkpt>
      <trkpt lat="44.36909" lon="4.15611">
        <ele>283</ele>
      </trkpt>
      <trkpt lat="44.36899" lon="4.15617">
        <ele>282</ele>
      </trkpt>
      <trkpt lat="44.36899" lon="4.15637">
        <ele>282</ele>
      </trkpt>
      <trkpt lat="44.36884" lon="4.15656">
        <ele>279</ele>
      </trkpt>
      <trkpt lat="44.36873" lon="4.15683">
        <ele>276</ele>
      </trkpt>
      <trkpt lat="44.36873" lon="4.157">
        <ele>274</ele>
      </trkpt>
      <trkpt lat="44.36897" lon="4.15648">
        <ele>282</ele>
      </trkpt>
      <trkpt lat="44.36911" lon="4.1562">
        <ele>284</ele>
      </trkpt>
      <trkpt lat="44.3692" lon="4.15607">
        <ele>283</ele>
      </trkpt>
      <trkpt lat="44.36941" lon="4.15609">
        <ele>274</ele>
        <time>2021-07-28T12:24:44+02:00</time>
      </trkpt>
      <trkpt lat="44.36928" lon="4.1559">
        <ele>279</ele>
      </trkpt>
      <trkpt lat="44.36923" lon="4.1557">
        <ele>278</ele>
        <time>2021-07-28T12:26:25+02:00</time>
      </trkpt>
      <trkpt lat="44.36932" lon="4.15525">
        <ele>265</ele>
        <time>2021-07-28T12:33:01+02:00</time>
      </trkpt>
      <trkpt lat="44.36935" lon="4.15506">
        <ele>260</ele>
      </trkpt>
      <trkpt lat="44.36912" lon="4.1549">
        <ele>263</ele>
      </trkpt>
      <trkpt lat="44.36899" lon="4.15497">
        <ele>265</ele>
      </trkpt>
      <trkpt lat="44.36891" lon="4.15509">
        <ele>267</ele>
        <time>2021-07-28T12:33:37+02:00</time>
      </trkpt>
      <trkpt lat="44.36881" lon="4.15529">
        <ele>270</ele>
      </trkpt>
      <trkpt lat="44.36863" lon="4.15551">
        <ele>272</ele>
      </trkpt>
      <trkpt lat="44.3686" lon="4.15534">
        <ele>270</ele>
      </trkpt>
      <trkpt lat="44.36846" lon="4.15516">
        <ele>269</ele>
        <time>2021-07-28T12:49:42+02:00</time>
      </trkpt>
      <trkpt lat="44.3683" lon="4.15502">
        <ele>268</ele>
      </trkpt>
      <trkpt lat="44.36819" lon="4.15522">
        <ele>269</ele>
        <time>2021-07-28T12:51:06+02:00</time>
      </trkpt>
      <trkpt lat="44.3681" lon="4.15534">
        <ele>268</ele>
        <time>2021-07-28T13:17:25+02:00</time>
      </trkpt>
      <trkpt lat="44.3679" lon="4.15519">
        <ele>268</ele>
        <time>2021-07-28T13:17:55+02:00</time>
      </trkpt>
      <trkpt lat="44.36768" lon="4.15519">
        <ele>268</ele>
        <time>2021-07-28T13:18:24+02:00</time>
      </trkpt>
      <trkpt lat="44.36745" lon="4.15526">
        <ele>267</ele>
        <time>2021-07-28T13:19:14+02:00</time>
      </trkpt>
      <trkpt lat="44.36723" lon="4.15529">
        <ele>268</ele>
        <time>2021-07-28T13:19:43+02:00</time>
      </trkpt>
      <trkpt lat="44.367" lon="4.1553">
        <ele>269</ele>
        <time>2021-07-28T13:20:08+02:00</time>
      </trkpt>
      <trkpt lat="44.36677" lon="4.15529">
        <ele>271</ele>
        <time>2021-07-28T13:20:30+02:00</time>
      </trkpt>
      <trkpt lat="44.36654" lon="4.1553">
        <ele>273</ele>
        <time>2021-07-28T13:23:43+02:00</time>
      </trkpt>
      <trkpt lat="44.36631" lon="4.1553">
        <ele>275</ele>
        <time>2021-07-28T13:24:11+02:00</time>
      </trkpt>
      <trkpt lat="44.36608" lon="4.15536">
        <ele>276</ele>
        <time>2021-07-28T13:24:45+02:00</time>
      </trkpt>
      <trkpt lat="44.36587" lon="4.1555">
        <ele>277</ele>
        <time>2021-07-28T13:25:11+02:00</time>
      </trkpt>
      <trkpt lat="44.36572" lon="4.15574">
        <ele>276</ele>
        <time>2021-07-28T13:25:39+02:00</time>
      </trkpt>
      <trkpt lat="44.36547" lon="4.15602">
        <ele>275</ele>
      </trkpt>
      <trkpt lat="44.36541" lon="4.15609">
        <ele>276</ele>
      </trkpt>
      <trkpt lat="44.36522" lon="4.15604">
        <ele>277</ele>
        <time>2021-07-28T13:26:04+02:00</time>
      </trkpt>
    </trkseg>
  </trk>
</gpx>